Time;durP1;ratioP1;P1;durP2;ratioP2;P2;SDS_P1;SDS_P2;PMS_P1;PMS_P2;Temp;Humidity;BMP_temperature;BMP_pressure;BME280_temperature;BME280_humidity;BME280_pressure;Samples;Min_cycle;Max_cycle;Signal;HPM_P1;HPM_P2
2022/07/01 00:01:42;;;;;;;20.50;12.40;;;;;;;20.89;70.05;99005.20;104893;1271;77128;-24
2022/07/01 00:04:10;;;;;;;17.80;11.00;;;;;;;21.36;68.18;99009.56;104713;1274;74590;-24
2022/07/01 00:06:37;;;;;;;14.00;9.30;;;;;;;21.36;67.56;99010.23;104771;1274;63136;-24
2022/07/01 00:09:05;;;;;;;11.60;8.60;;;;;;;21.14;67.97;99013.33;105083;1271;61413;-24
2022/07/01 00:11:32;;;;;;;10.60;8.50;;;;;;;20.83;69.47;99017.18;105046;1271;75804;-24
2022/07/01 00:14:00;;;;;;;10.30;7.20;;;;;;;20.52;70.67;99016.76;104735;1274;76858;-24
2022/07/01 00:16:28;;;;;;;13.10;8.60;;;;;;;20.17;73.09;99015.23;104783;1271;75657;-24
2022/07/01 00:18:56;;;;;;;7.00;5.50;;;;;;;19.96;73.75;99013.89;105076;1274;64578;-24
2022/07/01 00:21:23;;;;;;;7.20;5.90;;;;;;;20.43;72.38;99012.94;104915;1272;63027;-24
2022/07/01 00:23:51;;;;;;;7.00;5.60;;;;;;;20.92;70.34;99016.13;105123;1271;76572;-25
2022/07/01 00:26:18;;;;;;;7.40;6.20;;;;;;;20.96;69.67;99017.86;105029;1271;77717;-24
2022/07/01 00:28:45;;;;;;;7.40;6.60;;;;;;;20.69;70.40;99015.77;104942;1271;75419;-24
2022/07/01 00:31:13;;;;;;;10.90;6.80;;;;;;;20.50;70.59;99010.65;105079;1271;63359;-24
2022/07/01 00:33:40;;;;;;;7.60;6.80;;;;;;;20.25;70.95;99011.77;104886;1271;61604;-24
2022/07/01 00:36:08;;;;;;;7.40;6.70;;;;;;;20.01;71.81;99012.10;104838;1274;76804;-24
2022/07/01 00:38:35;;;;;;;5.40;4.30;;;;;;;19.77;74.26;99011.05;105082;1271;76731;-24
2022/07/01 00:41:03;;;;;;;8.50;5.90;;;;;;;20.05;73.96;99009.42;105056;1271;74451;-24
2022/07/01 00:43:35;;;;;;;7.10;6.40;;;;;;;20.53;71.88;99009.89;104739;1271;61709;-24
2022/07/01 00:46:21;;;;;;;7.40;6.40;;;;;;;20.52;71.89;99014.36;105008;1271;62758;-24
2022/07/01 00:48:50;;;;;;;8.60;6.20;;;;;;;20.22;72.98;99009.84;104835;1272;76344;-24
2022/07/01 00:51:18;;;;;;;8.00;6.30;;;;;;;20.06;73.14;99008.77;104703;1272;77052;-24
2022/07/01 00:53:47;;;;;;;8.10;6.70;;;;;;;19.84;74.09;99007.52;104993;1271;73284;-24
2022/07/01 00:56:14;;;;;;;5.90;4.90;;;;;;;19.68;74.44;99005.36;104681;1271;65057;-24
2022/07/01 00:58:42;;;;;;;6.30;5.00;;;;;;;20.13;73.13;99004.41;104820;1271;62773;-24
2022/07/01 01:01:09;;;;;;;6.60;5.70;;;;;;;20.55;71.84;99007.80;104801;1271;76595;-24
2022/07/01 01:03:37;;;;;;;7.30;6.50;;;;;;;20.61;70.05;99008.22;105050;1271;76135;-24
2022/07/01 01:06:07;;;;;;;7.50;6.80;;;;;;;20.40;70.31;99015.52;104755;1271;75411;-24
2022/07/01 01:08:34;;;;;;;7.20;6.40;;;;;;;20.11;71.17;99011.06;104745;1271;62789;-24
2022/07/01 01:11:01;;;;;;;8.10;7.00;;;;;;;19.82;71.74;99015.14;104855;1271;62999;-24
2022/07/01 01:13:29;;;;;;;7.80;6.80;;;;;;;19.55;72.52;99013.14;104847;1271;76312;-24
2022/07/01 01:15:56;;;;;;;6.60;5.20;;;;;;;19.34;73.23;99016.02;104856;1271;76009;-25
2022/07/01 01:18:24;;;;;;;7.20;4.90;;;;;;;19.75;73.38;99015.30;104798;1272;73709;-24
2022/07/01 01:20:54;;;;;;;8.60;5.90;;;;;;;20.26;71.98;99018.20;104875;1271;62791;-24
2022/07/01 01:23:22;;;;;;;6.00;5.40;;;;;;;20.27;71.65;99024.35;104979;1271;62724;-24
2022/07/01 01:25:49;;;;;;;8.90;5.90;;;;;;;20.02;71.66;99025.98;105049;1274;75618;-24
2022/07/01 01:28:16;;;;;;;7.20;6.50;;;;;;;19.69;72.55;99029.81;104769;1271;76633;-24
2022/07/01 01:30:44;;;;;;;8.30;6.50;;;;;;;19.42;73.26;99032.84;103551;1271;1797019;-24
2022/07/01 01:33:11;;;;;;;5.70;5.00;;;;;;;19.17;73.57;99034.88;104979;1271;63672;-24
2022/07/01 01:35:39;;;;;;;7.00;5.30;;;;;;;19.45;73.15;99036.45;104927;1271;61883;-24
2022/07/01 01:38:06;;;;;;;6.90;5.50;;;;;;;19.85;71.93;99034.27;105043;1271;76675;-24
2022/07/01 01:40:34;;;;;;;6.80;6.00;;;;;;;19.81;71.50;99032.89;105088;1271;76712;-24
2022/07/01 01:43:01;;;;;;;8.10;6.00;;;;;;;19.60;72.09;99037.41;105001;1269;75363;-25
2022/07/01 01:45:30;;;;;;;7.00;6.30;;;;;;;19.33;73.12;99041.98;104752;1271;62051;-24
2022/07/01 01:47:57;;;;;;;7.60;5.20;;;;;;;19.08;73.31;99039.30;104925;1271;61322;-24
2022/07/01 01:50:24;;;;;;;7.50;6.20;;;;;;;18.80;73.66;99041.73;104827;1271;76694;-24
2022/07/01 01:52:52;;;;;;;5.50;4.70;;;;;;;18.59;74.62;99038.02;104920;1271;76991;-24
2022/07/01 01:55:19;;;;;;;6.40;5.20;;;;;;;19.05;74.12;99038.58;104922;1271;74702;-24
2022/07/01 01:57:46;;;;;;;7.50;5.10;;;;;;;19.56;72.94;99036.08;104706;1271;63487;-24
2022/07/01 02:00:14;;;;;;;6.30;5.70;;;;;;;19.57;72.61;99037.02;104831;1270;61809;-24
2022/07/01 02:02:41;;;;;;;6.40;5.80;;;;;;;19.40;72.64;99038.19;104756;1271;76884;-24
2022/07/01 02:05:10;;;;;;;8.30;5.70;;;;;;;19.14;72.92;99040.10;105106;1271;75998;-24
2022/07/01 02:07:38;;;;;;;6.90;5.70;;;;;;;18.90;73.91;99039.50;104889;1271;75803;-24
2022/07/01 02:10:06;;;;;;;5.30;4.50;;;;;;;18.72;74.31;99041.77;104800;1271;64604;-25
2022/07/01 02:12:33;;;;;;;4.30;3.90;;;;;;;19.14;74.01;99044.52;104660;1271;63052;-23
2022/07/01 02:15:01;;;;;;;4.50;4.10;;;;;;;19.64;72.47;99046.60;104804;1271;75153;-23
2022/07/01 02:17:28;;;;;;;5.80;4.50;;;;;;;19.66;71.48;99049.12;104968;1271;75994;-23
2022/07/01 02:19:55;;;;;;;6.40;5.60;;;;;;;19.46;71.42;99050.58;104770;1271;75603;-23
2022/07/01 02:22:23;;;;;;;6.70;6.00;;;;;;;19.21;72.04;99053.52;104823;1271;61150;-23
2022/07/01 02:24:50;;;;;;;7.30;6.10;;;;;;;18.97;73.32;99053.49;105140;1269;63582;-23
2022/07/01 02:27:18;;;;;;;7.00;5.30;;;;;;;18.75;75.35;99047.18;105061;1271;76800;-23
2022/07/01 02:29:46;;;;;;;8.30;5.90;;;;;;;19.26;74.55;99049.23;104946;1271;76982;-23
2022/07/01 02:32:15;;;;;;;7.80;6.30;;;;;;;20.02;71.63;99052.77;104981;1271;75381;-23
2022/07/01 02:34:42;;;;;;;9.50;7.30;;;;;;;20.37;70.96;99053.17;104866;1271;61818;-23
2022/07/01 02:37:09;;;;;;;8.70;7.20;;;;;;;20.46;69.96;99052.83;105046;1271;61327;-23
2022/07/01 02:39:37;;;;;;;14.30;8.30;;;;;;;20.28;70.40;99056.70;104988;1271;76254;-23
2022/07/01 02:42:23;;;;;;;10.50;8.50;;;;;;;20.07;71.00;99058.40;105014;1271;76983;-23
2022/07/01 02:44:50;;;;;;;8.20;7.00;;;;;;;20.15;71.13;99057.80;104844;1271;75403;-24
2022/07/01 02:47:17;;;;;;;12.50;8.30;;;;;;;20.97;69.67;99059.38;104801;1271;61925;-24
2022/07/01 02:49:45;;;;;;;13.70;10.40;;;;;;;21.75;66.99;99063.35;104807;1271;61600;-25
2022/07/01 02:52:12;;;;;;;18.50;11.70;;;;;;;22.04;66.09;99064.11;104791;1271;75328;-24
2022/07/01 02:54:39;;;;;;;18.30;13.70;;;;;;;22.08;65.50;99062.84;105017;1271;76830;-24
2022/07/01 02:57:07;;;;;;;15.20;9.70;;;;;;;22.09;65.21;99063.17;105054;1270;75467;-24
2022/07/01 02:59:35;;;;;;;11.40;8.60;;;;;;;22.04;65.29;99063.05;104792;1271;63511;-24
2022/07/01 03:02:06;;;;;;;7.70;6.90;;;;;;;22.05;65.28;99063.30;104832;1271;62905;-24
2022/07/01 03:04:33;;;;;;;10.30;7.10;;;;;;;22.12;64.70;99059.89;104727;1271;76609;-24
2022/07/01 03:07:01;;;;;;;7.50;4.60;;;;;;;22.20;64.66;99057.25;104800;1271;76050;-24
2022/07/01 03:09:29;;;;;;;6.40;5.30;;;;;;;22.91;64.25;99056.48;104736;1271;75406;-24
2022/07/01 03:11:56;;;;;;;7.00;5.70;;;;;;;23.71;62.03;99058.13;105003;1271;61242;-24
2022/07/01 03:14:23;;;;;;;6.60;5.70;;;;;;;24.04;60.70;99061.27;105176;1271;62763;-24
2022/07/01 03:16:52;;;;;;;11.70;8.00;;;;;;;24.16;60.68;99061.45;104928;1271;76467;-24
2022/07/01 03:19:20;;;;;;;12.30;9.30;;;;;;;24.09;59.71;99059.73;104865;1271;76898;-24
2022/07/01 03:21:47;;;;;;;12.30;9.80;;;;;;;24.02;59.78;99063.70;104983;1271;74282;-24
2022/07/01 03:24:14;;;;;;;19.00;12.70;;;;;;;23.98;59.75;99063.05;104870;1272;61122;-24
2022/07/01 03:26:42;;;;;;;9.40;8.40;;;;;;;23.85;59.90;99070.80;104843;1271;62877;-24
2022/07/01 03:29:09;;;;;;;10.20;7.90;;;;;;;23.78;60.14;99076.47;104837;1271;76566;-24
2022/07/01 03:31:39;;;;;;;8.50;6.90;;;;;;;23.67;59.97;99080.55;104876;1271;77047;-24
2022/07/01 03:34:06;;;;;;;7.20;6.50;;;;;;;23.64;60.38;99084.77;105079;1271;75431;-24
2022/07/01 03:36:36;;;;;;;8.50;6.70;;;;;;;23.72;60.51;99086.02;104999;1271;61729;-24
2022/07/01 03:39:04;;;;;;;8.70;6.90;;;;;;;23.86;60.22;99083.54;105005;1271;61967;-24
2022/07/01 03:41:32;;;;;;;7.60;6.70;;;;;;;24.04;60.01;99083.33;105107;1271;76688;-24
2022/07/01 03:43:59;;;;;;;14.10;8.10;;;;;;;24.14;59.31;99082.29;105014;1271;75301;-24
2022/07/01 03:46:30;;;;;;;11.80;8.20;;;;;;;24.23;59.39;99082.02;104829;1271;74399;-24
2022/07/01 03:48:58;;;;;;;12.60;8.70;;;;;;;24.36;59.39;99082.80;105017;1271;61940;-24
2022/07/01 03:51:25;;;;;;;12.10;9.00;;;;;;;24.54;59.16;99086.21;104748;1271;62022;-24
2022/07/01 03:56:39;;;;;;;11.70;7.90;;;;;;;24.91;58.23;99079.60;105149;1270;75744;-24
2022/07/01 03:59:07;;;;;;;10.40;8.40;;;;;;;25.05;58.60;99078.70;105263;1271;75327;-24
2022/07/01 04:01:36;;;;;;;11.60;9.10;;;;;;;25.20;58.12;99080.48;105176;1271;62126;-24
2022/07/01 04:04:03;;;;;;;12.10;8.60;;;;;;;25.31;57.83;99084.60;104889;1271;62219;-24
2022/07/01 04:06:32;;;;;;;10.30;8.30;;;;;;;25.32;57.83;99086.55;105004;1271;76574;-24
2022/07/01 04:09:01;;;;;;;9.20;8.30;;;;;;;25.33;57.88;99085.72;104875;1270;76984;-24
2022/07/01 04:11:29;;;;;;;13.60;7.80;;;;;;;25.49;57.67;99085.20;104779;1271;75565;-24
2022/07/01 04:13:56;;;;;;;9.90;7.60;;;;;;;25.60;57.41;99088.69;104892;1270;61745;-24
2022/07/01 04:16:25;;;;;;;7.80;7.00;;;;;;;25.76;57.02;99084.94;104751;1271;62163;-24
2022/07/01 04:18:53;;;;;;;10.50;6.70;;;;;;;25.89;56.37;99087.36;104844;1271;76617;-24
2022/07/01 04:24:07;;;;;;;8.20;6.20;;;;;;;26.22;55.59;99096.43;104798;1271;75373;-24
2022/07/01 04:26:34;;;;;;;7.10;5.70;;;;;;;26.38;55.15;99100.64;105091;1271;62850;-24
2022/07/01 04:29:04;;;;;;;5.50;5.00;;;;;;;26.53;54.88;99102.13;105089;1272;61769;-24
2022/07/01 04:31:31;;;;;;;6.80;5.30;;;;;;;26.78;54.50;99104.60;105115;1271;75502;-24
2022/07/01 04:33:59;;;;;;;5.40;4.90;;;;;;;26.96;53.55;99104.29;105070;1271;77093;-24
2022/07/01 04:36:26;;;;;;;6.10;4.80;;;;;;;27.04;53.49;99104.15;105091;1271;75195;-24
2022/07/01 04:38:54;;;;;;;5.30;4.80;;;;;;;27.22;53.16;99101.61;105108;1271;61189;-24
2022/07/01 04:44:07;;;;;;;6.60;4.50;;;;;;;27.38;52.25;99099.29;104813;1271;76329;-24
2022/07/01 04:46:35;;;;;;;4.90;4.40;;;;;;;27.46;52.09;99097.76;104980;1271;77064;-24
2022/07/01 04:49:03;;;;;;;4.50;3.90;;;;;;;27.53;51.86;99093.58;105135;1271;74116;-24
2022/07/01 04:51:30;;;;;;;9.20;4.00;;;;;;;27.70;51.29;99089.45;104933;1271;62735;-24
2022/07/01 04:53:58;;;;;;;5.80;4.20;;;;;;;27.86;50.75;99091.77;104770;1272;61227;-24
2022/07/01 04:56:26;;;;;;;4.90;4.00;;;;;;;27.97;50.68;99092.41;104794;1271;75406;-24
2022/07/01 04:58:55;;;;;;;6.60;3.70;;;;;;;27.89;50.57;99092.53;104856;1271;76884;-24
2022/07/01 05:01:23;;;;;;;5.40;3.50;;;;;;;27.69;51.35;99091.13;104676;1271;75398;-24
2022/07/01 05:04:18;;;;;;;6.70;3.70;;;;;;;27.72;50.83;99088.36;105073;1271;61947;-24
2022/07/01 05:06:46;;;;;;;4.10;3.70;;;;;;;27.83;51.13;99087.38;105091;1271;61693;-24
2022/07/01 05:09:13;;;;;;;5.70;3.70;;;;;;;28.11;50.32;99086.44;105066;1271;74897;-24
2022/07/01 05:11:41;;;;;;;6.00;3.80;;;;;;;28.31;50.04;99083.36;104875;1271;75784;-24
2022/07/01 05:14:08;;;;;;;4.30;3.80;;;;;;;28.49;49.32;99087.52;104729;1271;75388;-24
2022/07/01 05:16:36;;;;;;;4.20;3.80;;;;;;;28.47;48.55;99090.48;104832;1271;61971;-24
2022/07/01 05:21:56;;;;;;;3.50;3.20;;;;;;;28.45;48.45;99091.48;104787;1271;74807;-24
2022/07/01 05:24:25;;;;;;;3.70;3.40;;;;;;;28.40;49.64;99095.19;104876;1271;75954;-24
2022/07/01 05:26:55;;;;;;;4.20;3.70;;;;;;;28.62;49.06;99098.39;104825;1271;74366;-24
2022/07/01 05:29:23;;;;;;;3.90;3.10;;;;;;;28.88;48.59;99101.81;104640;1271;61042;-24
2022/07/01 05:31:50;;;;;;;4.20;3.50;;;;;;;29.09;48.34;99101.76;105125;1271;63041;-24
2022/07/01 05:34:18;;;;;;;5.00;3.30;;;;;;;29.25;48.01;99097.98;105070;1271;76686;-24
2022/07/01 05:36:45;;;;;;;5.00;3.70;;;;;;;29.34;47.23;99096.52;105091;1271;76739;-24
2022/07/01 05:39:13;;;;;;;3.90;3.50;;;;;;;29.41;46.55;99094.86;105004;1271;75522;-24
2022/07/01 05:41:40;;;;;;;3.60;3.30;;;;;;;29.38;46.20;99098.61;104885;1271;61105;-24
2022/07/01 05:44:07;;;;;;;4.10;3.20;;;;;;;29.38;46.93;99101.36;105115;1271;61082;-24
2022/07/01 05:46:36;;;;;;;3.70;3.40;;;;;;;29.49;46.80;99103.23;105064;1271;76654;-24
2022/07/01 05:49:04;;;;;;;3.50;3.10;;;;;;;29.68;46.55;99108.94;104973;1271;76993;-24
2022/07/01 05:51:31;;;;;;;5.60;3.40;;;;;;;29.70;46.22;99110.08;105082;1271;75450;-24
2022/07/01 05:53:59;;;;;;;3.90;3.50;;;;;;;29.33;46.70;99106.77;105286;1270;61121;-24
2022/07/01 05:56:28;;;;;;;3.30;3.00;;;;;;;29.14;47.30;99110.61;105022;1271;61808;-24
2022/07/01 05:58:55;;;;;;;4.90;3.40;;;;;;;29.21;48.00;99110.61;105001;1271;76527;-24
2022/07/01 06:01:23;;;;;;;5.70;3.70;;;;;;;29.45;47.12;99109.95;105132;1271;76941;-24
2022/07/01 06:03:51;;;;;;;55.90;6.40;;;;;;;29.68;46.68;99106.58;105107;1271;75406;-24
2022/07/01 06:06:19;;;;;;;9.00;3.80;;;;;;;29.76;45.60;99105.98;105280;1271;62308;-24
2022/07/01 06:08:47;;;;;;;7.00;3.60;;;;;;;29.67;45.48;99106.98;105136;1271;62036;-24
2022/07/01 06:11:15;;;;;;;4.10;3.70;;;;;;;29.51;45.77;99105.17;105115;1271;76333;-24
2022/07/01 06:13:42;;;;;;;7.50;3.60;;;;;;;29.53;45.91;99108.36;104879;1271;75852;-24
2022/07/01 06:16:09;;;;;;;3.90;3.40;;;;;;;29.80;45.03;99105.95;105092;1271;74325;-24
2022/07/01 06:18:37;;;;;;;3.30;3.00;;;;;;;29.69;43.89;99106.67;104996;1271;61153;-22
2022/07/01 06:21:04;;;;;;;3.70;3.40;;;;;;;29.78;44.24;99105.61;104773;1271;62087;-22
2022/07/01 06:23:32;;;;;;;3.30;2.60;;;;;;;29.85;43.88;99101.66;104842;1271;75314;-23
2022/07/01 06:25:59;;;;;;;3.70;2.90;;;;;;;29.86;43.76;99098.94;104776;1271;77022;-23
2022/07/01 06:28:29;;;;;;;3.60;2.90;;;;;;;30.00;43.97;99098.58;104945;1271;73620;-24
2022/07/01 06:30:57;;;;;;;2.80;2.50;;;;;;;30.16;44.46;99098.94;105019;1271;63126;-24
2022/07/01 06:33:27;;;;;;;3.70;3.00;;;;;;;30.28;43.17;99095.64;104977;1271;62800;-24
2022/07/01 06:35:54;;;;;;;10.60;3.00;;;;;;;30.22;42.13;99095.48;104913;1271;75872;-24
2022/07/01 06:38:23;;;;;;;4.00;2.90;;;;;;;30.37;43.11;99096.78;105082;1271;77009;-24
2022/07/01 06:43:37;;;;;;;3.20;2.60;;;;;;;30.53;42.03;99093.70;105082;1271;61031;-24
2022/07/01 06:46:04;;;;;;;9.20;2.70;;;;;;;30.61;42.03;99092.13;105077;1271;62019;-24
2022/07/01 06:48:32;;;;;;;3.60;2.70;;;;;;;30.68;42.76;99087.98;105010;1271;75791;-24
2022/07/01 06:50:59;;;;;;;3.30;2.90;;;;;;;30.74;42.86;99087.77;104815;1271;76829;-24
2022/07/01 06:53:27;;;;;;;2.80;2.40;;;;;;;30.74;43.08;99088.62;104992;1271;73840;-24
2022/07/01 06:55:55;;;;;;;4.00;2.60;;;;;;;30.52;42.31;99093.81;104893;1271;61017;-24
2022/07/01 06:58:22;;;;;;;3.70;3.10;;;;;;;30.11;43.41;99092.48;104625;1271;63092;-24
2022/07/01 07:00:50;;;;;;;5.40;3.00;;;;;;;30.02;43.19;99091.86;105071;1271;76509;-24
2022/07/01 07:03:17;;;;;;;3.80;2.80;;;;;;;29.73;44.45;99096.16;105240;1271;77003;-24
2022/07/01 07:05:44;;;;;;;3.60;2.80;;;;;;;29.82;43.97;99096.11;105118;1271;75705;-24
2022/07/01 07:08:13;;;;;;;2.90;2.70;;;;;;;29.86;44.03;99094.48;105103;1271;62012;-24
2022/07/01 07:10:42;;;;;;;3.60;2.80;;;;;;;30.08;44.25;99098.13;105129;1271;61127;-24
2022/07/01 07:13:10;;;;;;;4.00;3.00;;;;;;;30.23;43.29;99093.55;105274;1270;75477;-24
2022/07/01 07:15:41;;;;;;;2.80;2.60;;;;;;;30.09;43.78;99097.27;105000;1271;76970;-24
2022/07/01 07:18:09;;;;;;;2.90;2.50;;;;;;;30.21;43.21;99099.98;104930;1271;73863;-24
2022/07/01 07:20:36;;;;;;;2.90;2.70;;;;;;;30.43;43.02;99100.44;104850;1271;62035;-24
2022/07/01 07:23:04;;;;;;;3.00;2.60;;;;;;;30.70;42.80;99099.29;104879;1271;63151;-24
2022/07/01 07:25:32;;;;;;;6.80;3.40;;;;;;;30.94;41.73;99100.43;105068;1272;76520;-24
2022/07/01 07:27:59;;;;;;;4.10;3.00;;;;;;;30.94;40.75;99096.45;105166;1271;76073;-24
2022/07/01 07:30:27;;;;;;;4.20;2.90;;;;;;;31.04;41.07;99096.03;105106;1271;74370;-24
2022/07/01 07:32:54;;;;;;;2.70;2.50;;;;;;;30.84;39.80;99102.11;105097;1271;61354;-24
2022/07/01 07:35:27;;;;;;;6.90;2.70;;;;;;;30.83;42.00;99103.46;105074;1271;61132;-24
2022/07/01 07:37:55;;;;;;;3.10;2.70;;;;;;;31.19;41.54;99100.06;104920;1271;76655;-24
2022/07/01 07:40:22;;;;;;;5.40;2.50;;;;;;;31.45;39.16;99096.80;104983;1271;76141;-23
2022/07/01 07:42:49;;;;;;;2.60;2.40;;;;;;;31.23;37.06;99094.80;104971;1271;74357;-23
2022/07/01 07:45:17;;;;;;;6.00;2.80;;;;;;;31.03;37.20;99092.14;104789;1271;61164;-23
2022/07/01 07:47:48;;;;;;;4.80;2.80;;;;;;;30.27;39.45;99084.35;105062;1271;61009;-23
2022/07/01 07:50:16;;;;;;;5.60;2.60;;;;;;;30.65;39.62;99087.90;104940;1271;75286;-23
2022/07/01 07:52:43;;;;;;;3.70;2.40;;;;;;;30.95;37.23;99082.21;104629;1271;75956;-23
2022/07/01 07:55:10;;;;;;;4.60;3.10;;;;;;;30.91;37.04;99086.38;104761;1271;75482;-23
2022/07/01 07:57:39;;;;;;;3.70;2.50;;;;;;;30.99;38.04;99091.69;105013;1271;61955;-23
2022/07/01 08:00:08;;;;;;;4.40;2.00;;;;;;;31.25;37.25;99089.13;104836;1271;63318;-24
2022/07/01 08:02:42;;;;;;;3.60;2.50;;;;;;;31.42;36.75;99088.23;105098;1271;75497;-23
2022/07/01 08:05:10;;;;;;;4.50;2.40;;;;;;;31.44;36.31;99087.06;104992;1271;76992;-23
2022/07/01 08:07:41;;;;;;;3.90;2.40;;;;;;;31.53;37.78;99083.98;104852;1271;74322;-23
2022/07/01 08:10:10;;;;;;;2.70;2.50;;;;;;;31.84;37.52;99082.54;104757;1271;63114;-23
2022/07/01 08:12:38;;;;;;;2.40;2.20;;;;;;;32.12;36.34;99080.07;104833;1271;63355;-24
2022/07/01 08:15:06;;;;;;;2.30;1.90;;;;;;;32.21;36.33;99081.48;105042;1271;76754;-24
2022/07/01 08:17:34;;;;;;;6.80;2.60;;;;;;;32.05;35.88;99076.88;104835;1271;76972;-23
2022/07/01 08:20:01;;;;;;;6.10;2.30;;;;;;;32.02;36.53;99074.89;105089;1270;75379;-23
2022/07/01 08:22:28;;;;;;;4.80;2.20;;;;;;;32.17;36.28;99076.20;104893;1271;63145;-23
2022/07/01 08:24:56;;;;;;;3.00;2.50;;;;;;;32.34;35.79;99073.00;105121;1271;61666;-23
2022/07/01 08:27:23;;;;;;;3.60;2.40;;;;;;;32.30;35.84;99076.92;104999;1271;76278;-23
2022/07/01 08:29:53;;;;;;;3.20;2.00;;;;;;;32.30;35.71;99075.16;105027;1271;76875;-24
2022/07/01 08:32:22;;;;;;;3.40;2.10;;;;;;;32.44;35.25;99071.48;105113;1271;75444;-24
2022/07/01 08:34:49;;;;;;;4.70;2.20;;;;;;;32.62;34.60;99069.86;104899;1271;61085;-23
2022/07/01 08:37:16;;;;;;;2.20;2.00;;;;;;;32.79;34.08;99072.02;104780;1271;61249;-24
2022/07/01 08:39:44;;;;;;;4.00;2.40;;;;;;;33.02;33.58;99071.98;105069;1271;75411;-24
2022/07/01 08:42:11;;;;;;;3.40;2.60;;;;;;;33.04;33.44;99070.96;104898;1271;77002;-24
2022/07/01 08:44:40;;;;;;;2.90;2.40;;;;;;;32.48;33.75;99067.56;104818;1271;75507;-24
2022/07/01 08:47:13;;;;;;;7.80;2.60;;;;;;;32.45;35.87;99060.89;105009;1271;63213;-24
2022/07/01 08:49:40;;;;;;;3.00;2.20;;;;;;;32.65;34.17;99063.13;104821;1271;63272;-23
2022/07/01 08:52:09;;;;;;;2.80;2.50;;;;;;;32.87;34.25;99059.98;104903;1271;76651;-23
2022/07/01 08:54:38;;;;;;;4.40;2.20;;;;;;;32.95;35.20;99064.36;104879;1272;77066;-24
2022/07/01 08:57:07;;;;;;;2.40;2.20;;;;;;;33.21;34.41;99065.56;104752;1271;75303;-24
2022/07/01 08:59:35;;;;;;;3.00;2.50;;;;;;;33.35;35.19;99055.31;104949;1271;61083;-23
2022/07/01 09:02:04;;;;;;;3.30;2.30;;;;;;;33.47;34.22;99055.52;104948;1271;63060;-24
2022/07/01 09:04:33;;;;;;;2.50;2.30;;;;;;;33.22;31.16;99055.75;104978;1271;75258;-24
2022/07/01 09:07:02;;;;;;;2.90;2.40;;;;;;;33.37;31.29;99054.13;104988;1271;77200;-24
2022/07/01 09:09:35;;;;;;;3.80;2.10;;;;;;;33.20;31.54;99055.10;105194;1270;75609;-24
2022/07/01 09:12:03;;;;;;;3.00;2.50;;;;;;;33.20;32.46;99051.16;104677;1272;63235;-24
2022/07/01 09:14:32;;;;;;;5.60;2.40;;;;;;;33.60;32.19;99049.62;104733;1271;62835;-24
2022/07/01 09:17:02;;;;;;;3.30;2.50;;;;;;;33.96;31.28;99051.52;104775;1271;75407;-24
2022/07/01 09:19:36;;;;;;;5.90;2.50;;;;;;;33.97;32.04;99052.34;104698;1271;77092;-24
2022/07/01 09:22:12;;;;;;;3.00;2.10;;;;;;;33.93;31.05;99057.69;104931;1271;75231;-24
2022/07/01 09:24:42;;;;;;;3.80;2.50;;;;;;;33.70;30.87;99056.80;104872;1271;62795;-24
2022/07/01 09:27:16;;;;;;;4.30;2.50;;;;;;;33.58;32.11;99053.08;104670;1271;61711;-24
2022/07/01 09:29:51;;;;;;;3.20;2.30;;;;;;;33.50;31.80;99052.63;104822;1271;75582;-24
2022/07/01 09:32:20;;;;;;;3.90;2.80;;;;;;;33.26;32.83;99054.33;104641;1271;76054;-24
2022/07/01 09:34:49;;;;;;;3.10;2.60;;;;;;;33.39;31.89;99052.52;104677;1271;74387;-24
2022/07/01 09:37:18;;;;;;;6.10;2.70;;;;;;;33.50;31.95;99052.15;104878;1271;63588;-24
2022/07/01 09:39:47;;;;;;;4.20;2.70;;;;;;;33.30;31.72;99052.77;105150;1271;61719;-24
2022/07/01 09:42:18;;;;;;;3.70;2.50;;;;;;;32.82;32.72;99052.92;105129;1272;75432;-24
2022/07/01 09:44:52;;;;;;;3.00;2.70;;;;;;;32.48;33.34;99052.63;105051;1271;75776;-24
2022/07/01 09:47:25;;;;;;;4.10;2.90;;;;;;;31.70;34.21;99046.31;105042;1271;75392;-24
2022/07/01 09:49:53;;;;;;;3.10;2.80;;;;;;;31.70;34.54;99050.61;104988;1270;63061;-24
2022/07/01 09:52:20;;;;;;;3.10;2.50;;;;;;;31.63;34.47;99052.59;105102;1271;61993;-24
2022/07/01 09:54:49;;;;;;;3.00;2.70;;;;;;;31.58;34.82;99054.78;104897;1271;75635;-24
2022/07/01 09:57:17;;;;;;;5.20;3.00;;;;;;;31.56;34.03;99053.90;104787;1272;76493;-24
2022/07/01 09:59:44;;;;;;;4.40;3.00;;;;;;;30.73;35.24;99052.75;105164;1271;73688;-24
2022/07/01 10:02:12;;;;;;;4.20;2.80;;;;;;;30.84;36.32;99051.16;105052;1271;62603;-24
2022/07/01 10:04:54;;;;;;;3.50;3.20;;;;;;;31.69;34.76;99047.92;104930;1271;62474;-24
2022/07/01 10:07:43;;;;;;;2.90;2.60;;;;;;;32.05;33.42;99043.39;105114;1271;76531;-25
2022/07/01 10:10:35;;;;;;;2.60;2.40;;;;;;;32.69;33.48;99042.75;104748;1271;77075;-24
2022/07/01 10:13:03;;;;;;;2.60;2.30;;;;;;;33.24;33.02;99040.95;105049;1271;75447;-24
2022/07/01 10:15:30;;;;;;;6.10;2.70;;;;;;;33.04;33.18;99035.85;104734;1271;62085;-24
2022/07/01 10:17:58;;;;;;;5.00;2.70;;;;;;;32.64;32.94;99039.46;105103;1271;63065;-24
2022/07/01 10:20:27;;;;;;;2.60;2.40;;;;;;;32.58;33.56;99039.42;105171;1271;76585;-25
2022/07/01 10:23:04;;;;;;;2.90;2.20;;;;;;;32.81;32.38;99036.11;105151;1274;76960;-24
2022/07/01 10:25:33;;;;;;;6.70;3.60;;;;;;;32.66;33.10;99033.37;105098;1271;75457;-24
2022/07/01 10:28:14;;;;;;;5.10;3.10;;;;;;;32.29;32.32;99031.88;105147;1271;63046;-26
2022/07/01 10:30:51;;;;;;;3.00;2.70;;;;;;;31.56;32.41;99031.46;105089;1271;61859;-24
2022/07/01 10:33:47;;;;;;;4.80;3.10;;;;;;;30.93;33.10;99035.63;104919;1271;76695;-24
2022/07/01 10:36:16;;;;;;;4.40;2.60;;;;;;;29.45;35.22;99035.86;104854;1271;75768;-24
2022/07/01 10:41:34;;;;;;;2.80;2.60;;;;;;;31.39;34.06;99025.64;105062;1269;61808;-24
2022/07/01 10:44:03;;;;;;;4.30;2.50;;;;;;;32.23;31.71;99019.00;105039;1271;61057;-24
2022/07/01 10:46:49;;;;;;;2.90;2.70;;;;;;;32.91;31.22;99015.87;104837;1271;76589;-24
2022/07/01 10:49:18;;;;;;;2.90;2.70;;;;;;;33.65;32.03;99017.34;104900;1271;75704;-24
2022/07/01 10:51:52;;;;;;;4.40;2.30;;;;;;;34.18;32.03;99019.55;105026;1271;75517;-24
2022/07/01 10:54:35;;;;;;;4.00;2.40;;;;;;;34.42;29.32;99016.22;104696;1272;61961;-24
2022/07/01 10:57:19;;;;;;;3.00;2.20;;;;;;;34.55;27.97;99014.81;105049;1271;62094;-24
2022/07/01 11:00:07;;;;;;;2.50;2.30;;;;;;;34.26;29.03;99010.09;105101;1272;75218;-24
2022/07/01 11:02:37;;;;;;;2.10;2.00;;;;;;;33.87;30.00;99006.97;104731;1272;77080;-24
2022/07/01 11:05:12;;;;;;;5.00;2.30;;;;;;;33.51;29.44;99008.75;104925;1274;75439;-24
2022/07/01 11:07:45;;;;;;;6.10;2.40;;;;;;;33.46;29.83;99005.09;105118;1271;62807;-25
2022/07/01 11:10:15;;;;;;;15.70;5.60;;;;;;;33.62;30.61;99001.71;104991;1271;61188;-25
2022/07/01 11:12:44;;;;;;;5.50;2.70;;;;;;;32.80;30.49;99004.62;104824;1271;75479;-24
2022/07/01 11:15:12;;;;;;;5.20;2.40;;;;;;;32.53;31.31;99002.56;104722;1271;76764;-24
2022/07/01 11:17:47;;;;;;;2.50;2.20;;;;;;;32.18;31.20;99000.90;104906;1271;73062;-24
2022/07/01 11:20:14;;;;;;;3.30;2.30;;;;;;;31.77;31.53;98996.61;104822;1271;62122;-25
2022/07/01 11:22:49;;;;;;;5.00;2.40;;;;;;;31.48;32.09;98997.55;105128;1271;61054;-24
2022/07/01 11:25:17;;;;;;;2.60;2.40;;;;;;;31.46;33.02;98997.00;105125;1271;75474;-24
2022/07/01 11:27:46;;;;;;;3.20;2.90;;;;;;;31.38;31.73;98997.13;104947;1271;75789;-24
2022/07/01 11:30:14;;;;;;;3.10;2.60;;;;;;;31.59;31.72;98996.18;105000;1271;74257;-24
2022/07/01 11:32:53;;;;;;;4.20;2.20;;;;;;;32.09;30.47;98990.51;105058;1271;61211;-24
2022/07/01 11:41:03;;;;;;;4.10;2.50;;;;;;;33.59;30.11;98979.65;104813;1271;76813;-25
2022/07/01 11:43:35;;;;;;;4.60;2.30;;;;;;;33.87;28.91;98980.98;104754;1271;74268;-24
2022/07/01 11:46:04;;;;;;;4.50;3.20;;;;;;;33.97;29.10;98977.21;104777;1271;63071;-24
2022/07/01 11:48:39;;;;;;;6.30;3.00;;;;;;;33.45;29.85;98975.45;104824;1272;61686;-24
2022/07/01 11:51:11;;;;;;;10.90;4.70;;;;;;;32.85;30.31;98968.69;104955;1271;76567;-24
2022/07/01 11:53:41;;;;;;;3.00;2.70;;;;;;;33.31;29.55;98975.48;104703;1271;76968;-25
2022/07/01 11:56:08;;;;;;;4.10;2.70;;;;;;;33.78;29.16;98972.30;104793;1271;75431;-24